sensor_id;sensor_type;location;lat;lon;timestamp;P1;durP1;ratioP1;P2;durP2;ratioP2
37997;SDS011;24079;51.824;4.682;2022-09-28T00:00:26;6.13;;;1.60;;
37997;SDS011;24079;51.824;4.682;2022-09-28T00:02:55;3.75;;;1.13;;
37997;SDS011;24079;51.824;4.682;2022-09-28T00:05:22;3.80;;;1.15;;
37997;SDS011;24079;51.824;4.682;2022-09-28T00:07:51;8.13;;;1.30;;
37997;SDS011;24079;51.824;4.682;2022-09-28T00:10:18;7.45;;;1.30;;
37997;SDS011;24079;51.824;4.682;2022-09-28T00:12:46;4.15;;;1.10;;
37997;SDS011;24079;51.824;4.682;2022-09-28T00:15:16;4.75;;;1.30;;
37997;SDS011;24079;51.824;4.682;2022-09-28T00:17:42;9.60;;;1.50;;
37997;SDS011;24079;51.824;4.682;2022-09-28T00:20:10;5.63;;;1.73;;
37997;SDS011;24079;51.824;4.682;2022-09-28T00:22:36;6.38;;;1.58;;
37997;SDS011;24079;51.824;4.682;2022-09-28T00:25:03;3.85;;;1.50;;
37997;SDS011;24079;51.824;4.682;2022-09-28T00:27:29;6.40;;;1.55;;
37997;SDS011;24079;51.824;4.682;2022-09-28T00:29:55;8.07;;;1.67;;
37997;SDS011;24079;51.824;4.682;2022-09-28T00:32:21;11.15;;;1.90;;
37997;SDS011;24079;51.824;4.682;2022-09-28T00:34:48;6.70;;;1.73;;
37997;SDS011;24079;51.824;4.682;2022-09-28T00:37:15;5.25;;;1.50;;
37997;SDS011;24079;51.824;4.682;2022-09-28T00:39:43;8.57;;;1.85;;
37997;SDS011;24079;51.824;4.682;2022-09-28T00:42:16;4.47;;;1.20;;
37997;SDS011;24079;51.824;4.682;2022-09-28T00:44:48;2.22;;;1.10;;
37997;SDS011;24079;51.824;4.682;2022-09-28T00:47:40;1.85;;;0.95;;
37997;SDS011;24079;51.824;4.682;2022-09-28T00:50:29;5.47;;;1.08;;
37997;SDS011;24079;51.824;4.682;2022-09-28T00:55:39;4.60;;;1.30;;
37997;SDS011;24079;51.824;4.682;2022-09-28T00:58:31;8.57;;;1.30;;
37997;SDS011;24079;51.824;4.682;2022-09-28T01:00:59;5.82;;;1.08;;
37997;SDS011;24079;51.824;4.682;2022-09-28T01:03:25;7.57;;;1.42;;
37997;SDS011;24079;51.824;4.682;2022-09-28T01:05:52;4.70;;;1.20;;
37997;SDS011;24079;51.824;4.682;2022-09-28T01:08:19;2.45;;;0.82;;
37997;SDS011;24079;51.824;4.682;2022-09-28T01:10:47;3.83;;;1.00;;
37997;SDS011;24079;51.824;4.682;2022-09-28T01:13:13;6.80;;;1.38;;
37997;SDS011;24079;51.824;4.682;2022-09-28T01:15:42;9.73;;;1.08;;
37997;SDS011;24079;51.824;4.682;2022-09-28T01:19:00;5.70;;;0.75;;
37997;SDS011;24079;51.824;4.682;2022-09-28T01:21:23;2.67;;;0.75;;
37997;SDS011;24079;51.824;4.682;2022-09-28T01:24:05;5.38;;;0.80;;
37997;SDS011;24079;51.824;4.682;2022-09-28T01:26:46;3.30;;;0.50;;
37997;SDS011;24079;51.824;4.682;2022-09-28T01:31:57;6.57;;;0.85;;
37997;SDS011;24079;51.824;4.682;2022-09-28T01:40:29;2.85;;;0.70;;
37997;SDS011;24079;51.824;4.682;2022-09-28T01:42:58;6.28;;;1.05;;
37997;SDS011;24079;51.824;4.682;2022-09-28T01:45:31;2.63;;;0.70;;
37997;SDS011;24079;51.824;4.682;2022-09-28T01:48:11;4.22;;;0.82;;
37997;SDS011;24079;51.824;4.682;2022-09-28T01:50:41;4.07;;;1.40;;
37997;SDS011;24079;51.824;4.682;2022-09-28T01:53:11;5.60;;;0.70;;
37997;SDS011;24079;51.824;4.682;2022-09-28T01:56:05;5.53;;;0.93;;
37997;SDS011;24079;51.824;4.682;2022-09-28T01:58:47;5.10;;;1.38;;
37997;SDS011;24079;51.824;4.682;2022-09-28T02:01:19;8.60;;;0.80;;
37997;SDS011;24079;51.824;4.682;2022-09-28T02:03:56;4.20;;;0.70;;
37997;SDS011;24079;51.824;4.682;2022-09-28T02:06:30;3.95;;;1.10;;
37997;SDS011;24079;51.824;4.682;2022-09-28T02:11:34;4.25;;;0.70;;
37997;SDS011;24079;51.824;4.682;2022-09-28T02:14:05;4.25;;;0.68;;
37997;SDS011;24079;51.824;4.682;2022-09-28T02:19:13;5.38;;;1.15;;
37997;SDS011;24079;51.824;4.682;2022-09-28T02:21:49;5.65;;;1.25;;
37997;SDS011;24079;51.824;4.682;2022-09-28T02:24:28;6.90;;;1.02;;
37997;SDS011;24079;51.824;4.682;2022-09-28T02:29:39;6.50;;;0.90;;
37997;SDS011;24079;51.824;4.682;2022-09-28T02:32:04;7.55;;;1.27;;
37997;SDS011;24079;51.824;4.682;2022-09-28T02:34:30;17.77;;;1.92;;
37997;SDS011;24079;51.824;4.682;2022-09-28T02:36:57;5.15;;;1.10;;
37997;SDS011;24079;51.824;4.682;2022-09-28T02:39:23;6.35;;;1.10;;
37997;SDS011;24079;51.824;4.682;2022-09-28T02:41:54;5.03;;;0.88;;
37997;SDS011;24079;51.824;4.682;2022-09-28T03:01:18;8.15;;;1.10;;
37997;SDS011;24079;51.824;4.682;2022-09-28T03:04:01;3.47;;;0.90;;
37997;SDS011;24079;51.824;4.682;2022-09-28T03:09:22;11.88;;;1.38;;
37997;SDS011;24079;51.824;4.682;2022-09-28T03:12:15;4.28;;;1.35;;
37997;SDS011;24079;51.824;4.682;2022-09-28T03:14:44;3.38;;;0.95;;
37997;SDS011;24079;51.824;4.682;2022-09-28T03:17:10;5.55;;;0.90;;
37997;SDS011;24079;51.824;4.682;2022-09-28T03:19:35;9.45;;;0.90;;
37997;SDS011;24079;51.824;4.682;2022-09-28T03:22:01;5.20;;;0.60;;
37997;SDS011;24079;51.824;4.682;2022-09-28T03:24:27;4.13;;;0.88;;
37997;SDS011;24079;51.824;4.682;2022-09-28T03:26:53;5.75;;;0.98;;
37997;SDS011;24079;51.824;4.682;2022-09-28T03:29:18;2.70;;;0.70;;
37997;SDS011;24079;51.824;4.682;2022-09-28T03:31:44;4.70;;;0.90;;
37997;SDS011;24079;51.824;4.682;2022-09-28T03:34:10;1.85;;;0.60;;
37997;SDS011;24079;51.824;4.682;2022-09-28T03:36:36;4.32;;;0.55;;
37997;SDS011;24079;51.824;4.682;2022-09-28T03:39:01;5.75;;;0.70;;
37997;SDS011;24079;51.824;4.682;2022-09-28T03:41:28;3.40;;;0.88;;
37997;SDS011;24079;51.824;4.682;2022-09-28T03:43:54;3.97;;;0.70;;
37997;SDS011;24079;51.824;4.682;2022-09-28T03:46:19;10.32;;;1.20;;
37997;SDS011;24079;51.824;4.682;2022-09-28T03:48:45;3.63;;;0.80;;
37997;SDS011;24079;51.824;4.682;2022-09-28T03:51:11;5.70;;;0.85;;
37997;SDS011;24079;51.824;4.682;2022-09-28T03:53:37;3.90;;;0.82;;
37997;SDS011;24079;51.824;4.682;2022-09-28T03:56:04;3.60;;;0.65;;
37997;SDS011;24079;51.824;4.682;2022-09-28T03:58:40;3.78;;;0.88;;
37997;SDS011;24079;51.824;4.682;2022-09-28T04:01:07;5.32;;;1.10;;
37997;SDS011;24079;51.824;4.682;2022-09-28T04:03:36;4.63;;;1.40;;
37997;SDS011;24079;51.824;4.682;2022-09-28T04:06:02;3.67;;;0.90;;
37997;SDS011;24079;51.824;4.682;2022-09-28T04:08:28;8.18;;;1.15;;
37997;SDS011;24079;51.824;4.682;2022-09-28T04:10:57;4.72;;;0.85;;
37997;SDS011;24079;51.824;4.682;2022-09-28T04:13:24;1.90;;;0.90;;
37997;SDS011;24079;51.824;4.682;2022-09-28T04:15:51;8.73;;;0.95;;
37997;SDS011;24079;51.824;4.682;2022-09-28T04:18:18;4.13;;;0.90;;
37997;SDS011;24079;51.824;4.682;2022-09-28T04:20:44;4.20;;;1.00;;
37997;SDS011;24079;51.824;4.682;2022-09-28T04:23:12;4.72;;;0.90;;
37997;SDS011;24079;51.824;4.682;2022-09-28T04:25:38;4.43;;;0.75;;
37997;SDS011;24079;51.824;4.682;2022-09-28T04:28:04;6.43;;;1.35;;
37997;SDS011;24079;51.824;4.682;2022-09-28T04:30:48;5.38;;;0.80;;
37997;SDS011;24079;51.824;4.682;2022-09-28T04:33:14;3.85;;;0.70;;
37997;SDS011;24079;51.824;4.682;2022-09-28T04:35:39;6.82;;;1.02;;
37997;SDS011;24079;51.824;4.682;2022-09-28T04:38:05;2.38;;;0.80;;
37997;SDS011;24079;51.824;4.682;2022-09-28T04:40:31;4.68;;;1.13;;
37997;SDS011;24079;51.824;4.682;2022-09-28T04:42:56;4.57;;;0.85;;
37997;SDS011;24079;51.824;4.682;2022-09-28T04:45:22;6.05;;;1.15;;
37997;SDS011;24079;51.824;4.682;2022-09-28T04:47:51;6.20;;;0.80;;
37997;SDS011;24079;51.824;4.682;2022-09-28T04:50:17;7.50;;;0.98;;
37997;SDS011;24079;51.824;4.682;2022-09-28T04:52:43;7.10;;;1.02;;
37997;SDS011;24079;51.824;4.682;2022-09-28T04:55:10;3.13;;;0.75;;
37997;SDS011;24079;51.824;4.682;2022-09-28T04:57:37;4.55;;;1.15;;
37997;SDS011;24079;51.824;4.682;2022-09-28T05:00:04;7.00;;;1.35;;
37997;SDS011;24079;51.824;4.682;2022-09-28T05:02:30;5.97;;;1.08;;
37997;SDS011;24079;51.824;4.682;2022-09-28T05:04:56;5.70;;;0.85;;
37997;SDS011;24079;51.824;4.682;2022-09-28T05:07:23;3.80;;;1.00;;
37997;SDS011;24079;51.824;4.682;2022-09-28T05:09:49;2.70;;;0.70;;
37997;SDS011;24079;51.824;4.682;2022-09-28T05:12:14;7.22;;;1.00;;
37997;SDS011;24079;51.824;4.682;2022-09-28T05:14:40;14.57;;;1.75;;
37997;SDS011;24079;51.824;4.682;2022-09-28T05:17:06;6.15;;;1.15;;
37997;SDS011;24079;51.824;4.682;2022-09-28T05:19:31;6.72;;;1.45;;
37997;SDS011;24079;51.824;4.682;2022-09-28T05:21:58;5.80;;;1.20;;
37997;SDS011;24079;51.824;4.682;2022-09-28T05:24:28;6.40;;;1.05;;
37997;SDS011;24079;51.824;4.682;2022-09-28T05:26:54;7.15;;;1.00;;
37997;SDS011;24079;51.824;4.682;2022-09-28T05:29:19;6.55;;;1.05;;
37997;SDS011;24079;51.824;4.682;2022-09-28T05:31:45;5.70;;;0.88;;
37997;SDS011;24079;51.824;4.682;2022-09-28T05:34:10;4.18;;;1.00;;
37997;SDS011;24079;51.824;4.682;2022-09-28T05:36:36;3.63;;;0.70;;
37997;SDS011;24079;51.824;4.682;2022-09-28T05:39:03;3.08;;;0.95;;
37997;SDS011;24079;51.824;4.682;2022-09-28T05:41:28;7.10;;;0.95;;
37997;SDS011;24079;51.824;4.682;2022-09-28T05:43:54;4.18;;;0.98;;
37997;SDS011;24079;51.824;4.682;2022-09-28T05:46:23;1.60;;;0.90;;
37997;SDS011;24079;51.824;4.682;2022-09-28T05:48:49;4.43;;;1.15;;
37997;SDS011;24079;51.824;4.682;2022-09-28T05:51:16;4.57;;;1.23;;
37997;SDS011;24079;51.824;4.682;2022-09-28T05:53:42;6.18;;;1.55;;
37997;SDS011;24079;51.824;4.682;2022-09-28T05:56:08;3.10;;;1.40;;
37997;SDS011;24079;51.824;4.682;2022-09-28T05:58:33;5.50;;;1.63;;
37997;SDS011;24079;51.824;4.682;2022-09-28T06:00:59;7.40;;;0.93;;
37997;SDS011;24079;51.824;4.682;2022-09-28T06:03:25;1.88;;;0.70;;
37997;SDS011;24079;51.824;4.682;2022-09-28T06:05:51;6.15;;;0.90;;
37997;SDS011;24079;51.824;4.682;2022-09-28T06:08:17;3.22;;;1.00;;
37997;SDS011;24079;51.824;4.682;2022-09-28T06:10:42;6.18;;;1.23;;
37997;SDS011;24079;51.824;4.682;2022-09-28T06:13:08;5.60;;;1.30;;
37997;SDS011;24079;51.824;4.682;2022-09-28T06:15:35;3.20;;;0.95;;
37997;SDS011;24079;51.824;4.682;2022-09-28T06:20:29;5.15;;;1.20;;
37997;SDS011;24079;51.824;4.682;2022-09-28T06:22:57;2.95;;;1.30;;
37997;SDS011;24079;51.824;4.682;2022-09-28T06:25:23;6.43;;;2.05;;
37997;SDS011;24079;51.824;4.682;2022-09-28T06:30:20;8.80;;;1.92;;
37997;SDS011;24079;51.824;4.682;2022-09-28T06:32:46;3.20;;;1.38;;
37997;SDS011;24079;51.824;4.682;2022-09-28T06:35:11;7.45;;;1.65;;
37997;SDS011;24079;51.824;4.682;2022-09-28T06:37:42;5.85;;;1.60;;
37997;SDS011;24079;51.824;4.682;2022-09-28T06:40:08;5.03;;;1.35;;
37997;SDS011;24079;51.824;4.682;2022-09-28T06:42:34;12.05;;;1.63;;
37997;SDS011;24079;51.824;4.682;2022-09-28T06:45:00;10.10;;;1.58;;
37997;SDS011;24079;51.824;4.682;2022-09-28T06:47:26;6.22;;;1.40;;
37997;SDS011;24079;51.824;4.682;2022-09-28T06:49:52;6.07;;;1.27;;
37997;SDS011;24079;51.824;4.682;2022-09-28T06:52:19;7.53;;;1.20;;
37997;SDS011;24079;51.824;4.682;2022-09-28T06:54:45;7.60;;;1.20;;
37997;SDS011;24079;51.824;4.682;2022-09-28T06:57:11;7.20;;;1.52;;
37997;SDS011;24079;51.824;4.682;2022-09-28T06:59:37;7.18;;;1.33;;
37997;SDS011;24079;51.824;4.682;2022-09-28T07:02:02;3.30;;;1.00;;
37997;SDS011;24079;51.824;4.682;2022-09-28T07:04:28;7.72;;;1.00;;
37997;SDS011;24079;51.824;4.682;2022-09-28T07:06:55;7.28;;;1.25;;
37997;SDS011;24079;51.824;4.682;2022-09-28T07:09:21;7.10;;;1.15;;
37997;SDS011;24079;51.824;4.682;2022-09-28T07:11:47;4.80;;;1.30;;
37997;SDS011;24079;51.824;4.682;2022-09-28T07:14:12;4.30;;;1.13;;
37997;SDS011;24079;51.824;4.682;2022-09-28T07:16:38;4.47;;;1.15;;
37997;SDS011;24079;51.824;4.682;2022-09-28T07:19:03;6.35;;;1.10;;
37997;SDS011;24079;51.824;4.682;2022-09-28T07:21:30;9.48;;;1.33;;
37997;SDS011;24079;51.824;4.682;2022-09-28T07:23:55;3.15;;;1.02;;
37997;SDS011;24079;51.824;4.682;2022-09-28T07:26:21;5.65;;;1.20;;
37997;SDS011;24079;51.824;4.682;2022-09-28T07:28:47;4.10;;;1.10;;
37997;SDS011;24079;51.824;4.682;2022-09-28T07:31:12;5.50;;;1.08;;
37997;SDS011;24079;51.824;4.682;2022-09-28T07:33:38;6.30;;;0.98;;
37997;SDS011;24079;51.824;4.682;2022-09-28T07:36:03;4.10;;;0.95;;
37997;SDS011;24079;51.824;4.682;2022-09-28T07:38:34;6.78;;;1.00;;
37997;SDS011;24079;51.824;4.682;2022-09-28T07:41:00;1.98;;;0.70;;
37997;SDS011;24079;51.824;4.682;2022-09-28T07:43:39;2.42;;;0.75;;
37997;SDS011;24079;51.824;4.682;2022-09-28T07:46:05;3.33;;;0.93;;
37997;SDS011;24079;51.824;4.682;2022-09-28T07:48:39;2.90;;;0.70;;
37997;SDS011;24079;51.824;4.682;2022-09-28T07:51:05;2.88;;;0.73;;
37997;SDS011;24079;51.824;4.682;2022-09-28T07:53:32;3.45;;;0.60;;
37997;SDS011;24079;51.824;4.682;2022-09-28T07:55:58;3.92;;;0.93;;
37997;SDS011;24079;51.824;4.682;2022-09-28T07:58:26;3.53;;;0.70;;
37997;SDS011;24079;51.824;4.682;2022-09-28T08:00:51;4.40;;;0.77;;
37997;SDS011;24079;51.824;4.682;2022-09-28T08:03:18;3.30;;;1.05;;
37997;SDS011;24079;51.824;4.682;2022-09-28T08:05:46;2.47;;;0.95;;
37997;SDS011;24079;51.824;4.682;2022-09-28T08:08:12;3.03;;;0.70;;
37997;SDS011;24079;51.824;4.682;2022-09-28T08:10:40;3.30;;;0.60;;
37997;SDS011;24079;51.824;4.682;2022-09-28T08:13:07;1.02;;;0.60;;
37997;SDS011;24079;51.824;4.682;2022-09-28T08:15:32;3.78;;;1.15;;
37997;SDS011;24079;51.824;4.682;2022-09-28T08:18:05;2.63;;;0.70;;
37997;SDS011;24079;51.824;4.682;2022-09-28T08:20:31;5.40;;;0.77;;
37997;SDS011;24079;51.824;4.682;2022-09-28T08:23:16;1.63;;;0.40;;
37997;SDS011;24079;51.824;4.682;2022-09-28T08:25:49;1.63;;;0.60;;
37997;SDS011;24079;51.824;4.682;2022-09-28T08:28:18;2.20;;;0.50;;
37997;SDS011;24079;51.824;4.682;2022-09-28T08:30:44;2.13;;;0.32;;
37997;SDS011;24079;51.824;4.682;2022-09-28T08:33:11;2.65;;;0.60;;
37997;SDS011;24079;51.824;4.682;2022-09-28T08:35:37;2.35;;;0.57;;
37997;SDS011;24079;51.824;4.682;2022-09-28T08:38:05;1.65;;;0.50;;
37997;SDS011;24079;51.824;4.682;2022-09-28T08:40:31;1.58;;;0.55;;
37997;SDS011;24079;51.824;4.682;2022-09-28T08:43:05;3.13;;;0.70;;
37997;SDS011;24079;51.824;4.682;2022-09-28T08:45:44;1.80;;;0.52;;
37997;SDS011;24079;51.824;4.682;2022-09-28T08:48:24;4.93;;;0.75;;
37997;SDS011;24079;51.824;4.682;2022-09-28T08:51:14;2.88;;;0.75;;
37997;SDS011;24079;51.824;4.682;2022-09-28T08:56:14;2.35;;;0.50;;
37997;SDS011;24079;51.824;4.682;2022-09-28T08:58:45;3.58;;;0.57;;
37997;SDS011;24079;51.824;4.682;2022-09-28T09:01:16;3.67;;;0.90;;
37997;SDS011;24079;51.824;4.682;2022-09-28T09:03:43;1.60;;;0.50;;
37997;SDS011;24079;51.824;4.682;2022-09-28T09:06:18;2.85;;;0.63;;
37997;SDS011;24079;51.824;4.682;2022-09-28T09:09:20;3.83;;;0.57;;
37997;SDS011;24079;51.824;4.682;2022-09-28T09:14:39;4.03;;;0.65;;
37997;SDS011;24079;51.824;4.682;2022-09-28T09:31:18;5.97;;;0.60;;
37997;SDS011;24079;51.824;4.682;2022-09-28T09:34:00;3.13;;;0.60;;
37997;SDS011;24079;51.824;4.682;2022-09-28T09:47:30;1.52;;;0.60;;
37997;SDS011;24079;51.824;4.682;2022-09-28T09:50:26;1.77;;;0.57;;
37997;SDS011;24079;51.824;4.682;2022-09-28T09:53:01;5.95;;;0.60;;
37997;SDS011;24079;51.824;4.682;2022-09-28T10:00:46;2.92;;;0.70;;
37997;SDS011;24079;51.824;4.682;2022-09-28T10:05:56;5.97;;;0.70;;
37997;SDS011;24079;51.824;4.682;2022-09-28T10:08:25;5.88;;;0.63;;
37997;SDS011;24079;51.824;4.682;2022-09-28T10:13:49;4.68;;;1.02;;
37997;SDS011;24079;51.824;4.682;2022-09-28T10:16:15;3.45;;;0.88;;
37997;SDS011;24079;51.824;4.682;2022-09-28T10:18:42;2.80;;;0.57;;
37997;SDS011;24079;51.824;4.682;2022-09-28T10:21:14;3.60;;;0.70;;
37997;SDS011;24079;51.824;4.682;2022-09-28T10:23:44;6.38;;;1.20;;
37997;SDS011;24079;51.824;4.682;2022-09-28T10:26:23;4.07;;;0.88;;
37997;SDS011;24079;51.824;4.682;2022-09-28T10:28:54;7.22;;;0.98;;
37997;SDS011;24079;51.824;4.682;2022-09-28T10:31:35;4.38;;;0.82;;
37997;SDS011;24079;51.824;4.682;2022-09-28T10:34:12;3.58;;;0.57;;
37997;SDS011;24079;51.824;4.682;2022-09-28T10:36:49;6.65;;;0.77;;
37997;SDS011;24079;51.824;4.682;2022-09-28T10:42:08;3.92;;;0.70;;
37997;SDS011;24079;51.824;4.682;2022-09-28T10:44:52;3.92;;;0.75;;
37997;SDS011;24079;51.824;4.682;2022-09-28T10:47:23;5.20;;;0.93;;
37997;SDS011;24079;51.824;4.682;2022-09-28T10:49:50;4.25;;;0.88;;
37997;SDS011;24079;51.824;4.682;2022-09-28T10:57:51;8.77;;;1.13;;
37997;SDS011;24079;51.824;4.682;2022-09-28T11:03:01;5.60;;;0.88;;
37997;SDS011;24079;51.824;4.682;2022-09-28T11:05:27;3.40;;;0.80;;
37997;SDS011;24079;51.824;4.682;2022-09-28T11:07:54;5.78;;;1.00;;
37997;SDS011;24079;51.824;4.682;2022-09-28T11:10:22;4.65;;;0.50;;
37997;SDS011;24079;51.824;4.682;2022-09-28T11:12:50;4.47;;;0.98;;
37997;SDS011;24079;51.824;4.682;2022-09-28T11:15:22;2.45;;;0.82;;
37997;SDS011;24079;51.824;4.682;2022-09-28T11:20:44;5.13;;;0.93;;
37997;SDS011;24079;51.824;4.682;2022-09-28T11:25:57;2.75;;;0.55;;
37997;SDS011;24079;51.824;4.682;2022-09-28T11:28:29;1.58;;;0.40;;
37997;SDS011;24079;51.824;4.682;2022-09-28T11:30:57;4.28;;;0.70;;
37997;SDS011;24079;51.824;4.682;2022-09-28T11:33:45;4.50;;;0.80;;
37997;SDS011;24079;51.824;4.682;2022-09-28T11:49:48;1.75;;;0.50;;
37997;SDS011;24079;51.824;4.682;2022-09-28T11:51:59;4.57;;;0.60;;
37997;SDS011;24079;51.824;4.682;2022-09-28T11:54:49;4.55;;;0.70;;
37997;SDS011;24079;51.824;4.682;2022-09-28T11:57:24;3.90;;;0.50;;
37997;SDS011;24079;51.824;4.682;2022-09-28T11:59:56;3.58;;;0.60;;
37997;SDS011;24079;51.824;4.682;2022-09-28T12:05:08;0.95;;;0.55;;
37997;SDS011;24079;51.824;4.682;2022-09-28T12:07:42;2.28;;;0.57;;
37997;SDS011;24079;51.824;4.682;2022-09-28T12:12:58;0.93;;;0.63;;
37997;SDS011;24079;51.824;4.682;2022-09-28T12:15:29;0.82;;;0.68;;
37997;SDS011;24079;51.824;4.682;2022-09-28T12:18:10;3.10;;;0.93;;
37997;SDS011;24079;51.824;4.682;2022-09-28T12:20:45;2.95;;;0.88;;
37997;SDS011;24079;51.824;4.682;2022-09-28T12:23:16;2.33;;;0.50;;
37997;SDS011;24079;51.824;4.682;2022-09-28T12:25:56;3.03;;;0.77;;
37997;SDS011;24079;51.824;4.682;2022-09-28T12:31:08;2.55;;;0.50;;
37997;SDS011;24079;51.824;4.682;2022-09-28T12:33:38;2.70;;;0.50;;
37997;SDS011;24079;51.824;4.682;2022-09-28T12:36:25;3.58;;;0.88;;
37997;SDS011;24079;51.824;4.682;2022-09-28T12:44:31;1.50;;;0.40;;
37997;SDS011;24079;51.824;4.682;2022-09-28T12:47:20;1.75;;;0.50;;
37997;SDS011;24079;51.824;4.682;2022-09-28T13:03:46;3.22;;;0.50;;
37997;SDS011;24079;51.824;4.682;2022-09-28T13:06:23;3.28;;;0.55;;
37997;SDS011;24079;51.824;4.682;2022-09-28T13:18:32;2.67;;;0.50;;
37997;SDS011;24079;51.824;4.682;2022-09-28T13:25:49;3.55;;;0.60;;
37997;SDS011;24079;51.824;4.682;2022-09-28T13:28:17;3.65;;;0.88;;
37997;SDS011;24079;51.824;4.682;2022-09-28T13:30:45;2.03;;;0.60;;
37997;SDS011;24079;51.824;4.682;2022-09-28T13:33:31;1.55;;;0.55;;
37997;SDS011;24079;51.824;4.682;2022-09-28T13:36:01;1.67;;;0.63;;
37997;SDS011;24079;51.824;4.682;2022-09-28T13:38:47;1.77;;;0.47;;
37997;SDS011;24079;51.824;4.682;2022-09-28T13:41:14;3.13;;;0.40;;
37997;SDS011;24079;51.824;4.682;2022-09-28T13:52:03;1.20;;;0.52;;
37997;SDS011;24079;51.824;4.682;2022-09-28T14:02:56;1.55;;;0.28;;
37997;SDS011;24079;51.824;4.682;2022-09-28T14:16:32;1.38;;;0.40;;
37997;SDS011;24079;51.824;4.682;2022-09-28T14:24:02;3.25;;;0.40;;
37997;SDS011;24079;51.824;4.682;2022-09-28T14:29:34;1.13;;;0.40;;
37997;SDS011;24079;51.824;4.682;2022-09-28T14:34:37;1.10;;;0.30;;
37997;SDS011;24079;51.824;4.682;2022-09-28T14:40:26;0.75;;;0.40;;
37997;SDS011;24079;51.824;4.682;2022-09-28T14:43:33;0.38;;;0.20;;
37997;SDS011;24079;51.824;4.682;2022-09-28T14:57:18;0.45;;;0.35;;
37997;SDS011;24079;51.824;4.682;2022-09-28T14:59:37;0.50;;;0.20;;
37997;SDS011;24079;51.824;4.682;2022-09-28T15:02:17;0.55;;;0.30;;
37997;SDS011;24079;51.824;4.682;2022-09-28T15:04:52;0.68;;;0.20;;
37997;SDS011;24079;51.824;4.682;2022-09-28T15:07:26;3.53;;;0.30;;
37997;SDS011;24079;51.824;4.682;2022-09-28T15:09:57;2.85;;;0.30;;
37997;SDS011;24079;51.824;4.682;2022-09-28T15:12:26;0.55;;;0.30;;
37997;SDS011;24079;51.824;4.682;2022-09-28T15:17:24;2.13;;;0.30;;
37997;SDS011;24079;51.824;4.682;2022-09-28T15:19:56;3.00;;;0.82;;
37997;SDS011;24079;51.824;4.682;2022-09-28T15:22:47;0.88;;;0.50;;
37997;SDS011;24079;51.824;4.682;2022-09-28T15:25:16;0.75;;;0.20;;
37997;SDS011;24079;51.824;4.682;2022-09-28T15:27:44;0.60;;;0.40;;
37997;SDS011;24079;51.824;4.682;2022-09-28T15:32:49;0.40;;;0.40;;
37997;SDS011;24079;51.824;4.682;2022-09-28T15:35:22;1.85;;;0.68;;
37997;SDS011;24079;51.824;4.682;2022-09-28T15:37:50;0.75;;;0.57;;
37997;SDS011;24079;51.824;4.682;2022-09-28T15:42:55;0.60;;;0.40;;
37997;SDS011;24079;51.824;4.682;2022-09-28T15:45:22;1.02;;;0.40;;
37997;SDS011;24079;51.824;4.682;2022-09-28T15:47:54;0.95;;;0.50;;
37997;SDS011;24079;51.824;4.682;2022-09-28T15:50:37;2.80;;;0.80;;
37997;SDS011;24079;51.824;4.682;2022-09-28T15:53:12;4.10;;;0.65;;
37997;SDS011;24079;51.824;4.682;2022-09-28T15:55:42;2.80;;;0.50;;
37997;SDS011;24079;51.824;4.682;2022-09-28T16:00:48;3.80;;;0.68;;
37997;SDS011;24079;51.824;4.682;2022-09-28T16:05:48;5.57;;;1.70;;
37997;SDS011;24079;51.824;4.682;2022-09-28T16:13:29;3.97;;;0.80;;
37997;SDS011;24079;51.824;4.682;2022-09-28T16:15:56;1.95;;;0.77;;
37997;SDS011;24079;51.824;4.682;2022-09-28T16:18:23;0.47;;;0.47;;
37997;SDS011;24079;51.824;4.682;2022-09-28T16:20:51;1.40;;;0.50;;
37997;SDS011;24079;51.824;4.682;2022-09-28T16:23:29;1.45;;;0.88;;
37997;SDS011;24079;51.824;4.682;2022-09-28T16:25:59;0.40;;;0.32;;
37997;SDS011;24079;51.824;4.682;2022-09-28T16:36:43;0.50;;;0.40;;
37997;SDS011;24079;51.824;4.682;2022-09-28T16:39:10;3.45;;;0.60;;
37997;SDS011;24079;51.824;4.682;2022-09-28T16:41:37;0.80;;;0.40;;
37997;SDS011;24079;51.824;4.682;2022-09-28T16:44:11;1.30;;;0.60;;
37997;SDS011;24079;51.824;4.682;2022-09-28T16:46:40;1.05;;;0.50;;
37997;SDS011;24079;51.824;4.682;2022-09-28T16:49:13;2.95;;;0.80;;
37997;SDS011;24079;51.824;4.682;2022-09-28T16:51:42;3.08;;;0.80;;
37997;SDS011;24079;51.824;4.682;2022-09-28T16:54:12;0.98;;;0.50;;
37997;SDS011;24079;51.824;4.682;2022-09-28T16:57:00;1.55;;;0.50;;
37997;SDS011;24079;51.824;4.682;2022-09-28T16:59:28;0.90;;;0.73;;
37997;SDS011;24079;51.824;4.682;2022-09-28T17:01:54;1.98;;;0.55;;
37997;SDS011;24079;51.824;4.682;2022-09-28T17:04:23;2.97;;;0.80;;
37997;SDS011;24079;51.824;4.682;2022-09-28T17:06:50;1.80;;;0.45;;
37997;SDS011;24079;51.824;4.682;2022-09-28T17:09:21;1.00;;;0.70;;
37997;SDS011;24079;51.824;4.682;2022-09-28T17:11:47;6.45;;;3.63;;
37997;SDS011;24079;51.824;4.682;2022-09-28T17:14:19;3.92;;;1.98;;
37997;SDS011;24079;51.824;4.682;2022-09-28T17:16:46;1.67;;;0.85;;
37997;SDS011;24079;51.824;4.682;2022-09-28T17:19:21;2.35;;;0.88;;
37997;SDS011;24079;51.824;4.682;2022-09-28T17:21:49;5.25;;;1.00;;
37997;SDS011;24079;51.824;4.682;2022-09-28T17:24:16;2.10;;;1.02;;
37997;SDS011;24079;51.824;4.682;2022-09-28T17:26:42;2.13;;;0.90;;
37997;SDS011;24079;51.824;4.682;2022-09-28T17:29:11;4.70;;;1.50;;
37997;SDS011;24079;51.824;4.682;2022-09-28T17:31:38;2.17;;;1.35;;
37997;SDS011;24079;51.824;4.682;2022-09-28T17:34:05;2.65;;;0.80;;
37997;SDS011;24079;51.824;4.682;2022-09-28T17:36:31;2.58;;;0.70;;
37997;SDS011;24079;51.824;4.682;2022-09-28T17:38:57;1.35;;;0.75;;
37997;SDS011;24079;51.824;4.682;2022-09-28T17:41:22;10.40;;;1.40;;
37997;SDS011;24079;51.824;4.682;2022-09-28T17:43:48;1.27;;;0.90;;
37997;SDS011;24079;51.824;4.682;2022-09-28T17:46:25;1.67;;;1.05;;
37997;SDS011;24079;51.824;4.682;2022-09-28T17:48:53;2.80;;;1.10;;
37997;SDS011;24079;51.824;4.682;2022-09-28T17:51:21;2.42;;;1.20;;
37997;SDS011;24079;51.824;4.682;2022-09-28T17:53:47;3.30;;;1.65;;
37997;SDS011;24079;51.824;4.682;2022-09-28T17:56:13;1.52;;;1.30;;
37997;SDS011;24079;51.824;4.682;2022-09-28T17:58:39;2.42;;;1.70;;
37997;SDS011;24079;51.824;4.682;2022-09-28T18:01:04;5.40;;;2.00;;
37997;SDS011;24079;51.824;4.682;2022-09-28T18:03:30;2.88;;;1.88;;
37997;SDS011;24079;51.824;4.682;2022-09-28T18:06:02;2.88;;;1.60;;
37997;SDS011;24079;51.824;4.682;2022-09-28T18:08:32;2.10;;;1.40;;
37997;SDS011;24079;51.824;4.682;2022-09-28T18:10:58;4.22;;;1.63;;
37997;SDS011;24079;51.824;4.682;2022-09-28T18:13:25;4.78;;;3.25;;
37997;SDS011;24079;51.824;4.682;2022-09-28T18:15:52;7.15;;;2.83;;
37997;SDS011;24079;51.824;4.682;2022-09-28T18:18:20;3.80;;;1.75;;
37997;SDS011;24079;51.824;4.682;2022-09-28T18:20:46;3.20;;;1.70;;
37997;SDS011;24079;51.824;4.682;2022-09-28T18:23:12;4.00;;;2.95;;
37997;SDS011;24079;51.824;4.682;2022-09-28T18:25:38;7.57;;;3.97;;
37997;SDS011;24079;51.824;4.682;2022-09-28T18:28:08;6.03;;;3.85;;
37997;SDS011;24079;51.824;4.682;2022-09-28T18:30:36;5.75;;;3.45;;
37997;SDS011;24079;51.824;4.682;2022-09-28T18:33:04;4.88;;;2.72;;
37997;SDS011;24079;51.824;4.682;2022-09-28T18:35:30;4.97;;;1.90;;
37997;SDS011;24079;51.824;4.682;2022-09-28T18:37:56;2.90;;;1.73;;
37997;SDS011;24079;51.824;4.682;2022-09-28T18:40:22;2.95;;;1.73;;
37997;SDS011;24079;51.824;4.682;2022-09-28T18:42:48;2.92;;;2.00;;
37997;SDS011;24079;51.824;4.682;2022-09-28T18:45:14;5.90;;;1.90;;
37997;SDS011;24079;51.824;4.682;2022-09-28T18:47:41;4.38;;;2.30;;
37997;SDS011;24079;51.824;4.682;2022-09-28T18:50:07;4.88;;;2.85;;
37997;SDS011;24079;51.824;4.682;2022-09-28T18:52:36;4.28;;;2.80;;
37997;SDS011;24079;51.824;4.682;2022-09-28T18:55:04;5.60;;;2.85;;
37997;SDS011;24079;51.824;4.682;2022-09-28T18:57:31;4.85;;;2.70;;
37997;SDS011;24079;51.824;4.682;2022-09-28T18:59:58;6.53;;;3.30;;